createdAt,value
2023-07-03T00:00:54.964Z,19.5
2023-07-03T00:01:59.765Z,19.4
2023-07-03T00:03:04.544Z,19.4
2023-07-03T00:04:11.740Z,19.4
2023-07-03T00:05:17.190Z,19.4
2023-07-03T00:06:22.137Z,19.4
2023-07-03T00:07:27.262Z,19.4
2023-07-03T00:08:31.946Z,19.3
2023-07-03T00:09:36.785Z,19.3
2023-07-03T00:10:41.764Z,19.3
2023-07-03T00:11:46.795Z,19.3
2023-07-03T00:12:51.688Z,19.3
2023-07-03T00:13:56.490Z,19.2
2023-07-03T00:15:01.258Z,19.2
2023-07-03T00:16:06.228Z,19.2
2023-07-03T00:17:10.864Z,19.2
2023-07-03T00:18:15.889Z,19.2
2023-07-03T00:19:23.344Z,19.2
2023-07-03T00:20:28.939Z,19.1
2023-07-03T00:21:33.689Z,19.1
2023-07-03T00:22:39.650Z,19.1
2023-07-03T00:23:44.611Z,19.1
2023-07-03T00:24:49.382Z,19.1
2023-07-03T00:25:55.172Z,19.1
2023-07-03T00:27:00.015Z,19.1
2023-07-03T00:28:04.752Z,19.1
2023-07-03T00:29:09.520Z,19.1
2023-07-03T00:30:14.502Z,19
2023-07-03T00:31:19.480Z,19
2023-07-03T00:32:25.317Z,19
2023-07-03T00:33:30.239Z,19
2023-07-03T00:34:35.018Z,19
2023-07-03T00:35:39.842Z,19
2023-07-03T00:36:44.774Z,19
2023-07-03T00:37:49.536Z,19
2023-07-03T00:38:54.429Z,19
2023-07-03T00:39:59.283Z,19
2023-07-03T00:41:04.213Z,19
2023-07-03T00:42:09.123Z,19
2023-07-03T00:43:13.893Z,19
2023-07-03T00:44:18.686Z,19
2023-07-03T00:45:23.552Z,18.9
2023-07-03T00:46:28.385Z,18.9
2023-07-03T00:47:33.133Z,18.9
2023-07-03T00:48:38.008Z,18.9
2023-07-03T00:49:42.788Z,18.9
2023-07-03T00:50:47.510Z,18.9
2023-07-03T00:51:52.377Z,18.9
2023-07-03T00:52:57.217Z,18.8
2023-07-03T00:54:03.500Z,18.8
2023-07-03T00:55:10.022Z,18.8
2023-07-03T00:56:14.851Z,18.8
2023-07-03T00:57:19.648Z,18.8
2023-07-03T00:58:24.459Z,18.7
2023-07-03T00:59:29.265Z,18.6
2023-07-03T01:00:34.066Z,18.6
2023-07-03T01:01:38.903Z,18.6
2023-07-03T01:02:43.698Z,18.6
2023-07-03T01:03:53.559Z,18.6
2023-07-03T01:04:58.451Z,18.5
2023-07-03T01:06:03.354Z,18.5
2023-07-03T01:07:08.353Z,18.5
2023-07-03T01:08:18.990Z,18.5
2023-07-03T01:09:23.709Z,18.5
2023-07-03T01:10:28.502Z,18.5
2023-07-03T01:11:35.922Z,18.6
2023-07-03T01:12:41.754Z,18.5
2023-07-03T01:13:46.611Z,18.6
2023-07-03T01:14:51.361Z,18.6
2023-07-03T01:15:56.131Z,18.5
2023-07-03T01:17:01.062Z,18.5
2023-07-03T01:18:08.177Z,18.5
2023-07-03T01:19:12.970Z,18.5
2023-07-03T01:20:17.765Z,18.4
2023-07-03T01:21:22.542Z,18.4
2023-07-03T01:22:27.286Z,18.4
2023-07-03T01:23:36.929Z,18.3
2023-07-03T01:24:46.674Z,18.1
2023-07-03T01:25:57.504Z,18.1
2023-07-03T01:27:02.448Z,18.1
2023-07-03T01:28:07.253Z,18.1
2023-07-03T01:29:12.113Z,18.2
2023-07-03T01:30:16.885Z,18.1
2023-07-03T01:31:21.706Z,18.1
2023-07-03T01:32:27.604Z,18
2023-07-03T01:33:32.702Z,17.9
2023-07-03T01:34:37.289Z,17.9
2023-07-03T01:35:42.071Z,17.9
2023-07-03T01:36:46.841Z,17.8
2023-07-03T01:37:52.575Z,17.9
2023-07-03T01:38:57.218Z,17.9
2023-07-03T01:40:01.935Z,17.9
2023-07-03T01:41:08.708Z,17.9
2023-07-03T01:42:13.482Z,17.8
2023-07-03T01:43:19.296Z,17.9
2023-07-03T01:44:25.143Z,17.7
2023-07-03T01:45:29.934Z,17.7
2023-07-03T01:46:35.846Z,17.6
2023-07-03T01:47:40.669Z,17.7
2023-07-03T01:48:45.270Z,17.7
2023-07-03T01:49:50.209Z,17.6
2023-07-03T01:50:54.926Z,17.5
2023-07-03T01:51:59.784Z,17.5
2023-07-03T01:53:14.552Z,17.6
2023-07-03T01:54:23.308Z,17.6
2023-07-03T01:55:28.899Z,17.7
2023-07-03T01:56:36.353Z,17.7
2023-07-03T01:57:41.119Z,17.8
2023-07-03T01:58:48.816Z,17.8
2023-07-03T01:59:58.585Z,17.7
2023-07-03T02:01:03.367Z,17.7
2023-07-03T02:02:10.905Z,17.7
2023-07-03T02:03:15.941Z,17.7
2023-07-03T02:04:25.730Z,17.7
2023-07-03T02:05:42.661Z,17.8
2023-07-03T02:06:47.523Z,17.8
2023-07-03T02:07:53.412Z,17.8
2023-07-03T02:08:59.272Z,17.8
2023-07-03T02:10:05.634Z,17.7
2023-07-03T02:11:11.608Z,17.7
2023-07-03T02:12:17.468Z,17.7
2023-07-03T02:13:22.181Z,17.7
2023-07-03T02:14:27.861Z,17.7
2023-07-03T02:15:32.744Z,17.7
2023-07-03T02:16:37.550Z,17.6
2023-07-03T02:17:42.384Z,17.5
2023-07-03T02:18:47.177Z,17.6
2023-07-03T02:19:52.085Z,17.6
2023-07-03T02:20:56.852Z,17.6
2023-07-03T02:22:01.640Z,17.6
2023-07-03T02:23:06.694Z,17.7
2023-07-03T02:24:11.385Z,17.6
2023-07-03T02:25:16.119Z,17.7
2023-07-03T02:26:21.048Z,17.6
2023-07-03T02:27:25.804Z,17.7
2023-07-03T02:28:30.561Z,17.7
2023-07-03T02:29:35.386Z,17.7
2023-07-03T02:30:40.118Z,17.8
2023-07-03T02:31:44.889Z,17.8
2023-07-03T02:32:49.683Z,17.8
2023-07-03T02:33:54.452Z,17.8
2023-07-03T02:34:59.272Z,17.8
2023-07-03T02:36:04.322Z,17.8
2023-07-03T02:37:10.267Z,17.9
2023-07-03T02:38:16.064Z,17.7
2023-07-03T02:39:21.994Z,17.8
2023-07-03T02:40:26.767Z,17.7
2023-07-03T02:41:31.520Z,17.7
2023-07-03T02:42:36.407Z,17.7
2023-07-03T02:43:41.179Z,17.8
2023-07-03T02:44:47.015Z,17.8
2023-07-03T02:45:51.898Z,17.8
2023-07-03T02:46:56.641Z,17.7
2023-07-03T02:48:01.344Z,17.7
2023-07-03T02:49:06.366Z,17.7
2023-07-03T02:50:11.406Z,17.8
2023-07-03T02:51:16.145Z,17.8
2023-07-03T02:52:20.888Z,17.8
2023-07-03T02:53:25.613Z,17.7
2023-07-03T02:54:30.410Z,17.6
2023-07-03T02:55:35.951Z,17.6
2023-07-03T02:56:40.697Z,17.5
2023-07-03T02:57:45.504Z,17.5
2023-07-03T02:58:50.306Z,17.5
2023-07-03T02:59:55.023Z,17.6
2023-07-03T03:01:00.060Z,17.6
2023-07-03T03:02:04.840Z,17.7
2023-07-03T03:03:11.663Z,17.8
2023-07-03T03:04:16.600Z,17.7
2023-07-03T03:05:21.331Z,17.8
2023-07-03T03:06:26.079Z,17.8
2023-07-03T03:07:30.943Z,17.9
2023-07-03T03:08:36.560Z,17.9
2023-07-03T03:09:41.312Z,17.9
2023-07-03T03:10:46.191Z,17.9
2023-07-03T03:11:52.015Z,18
2023-07-03T03:12:56.894Z,18
2023-07-03T03:14:01.623Z,18
2023-07-03T03:15:06.420Z,17.9
2023-07-03T03:16:11.359Z,17.8
2023-07-03T03:17:17.303Z,17.7
2023-07-03T03:18:22.136Z,17.7
2023-07-03T03:19:26.902Z,17.6
2023-07-03T03:20:33.206Z,17.8
2023-07-03T03:21:37.917Z,17.7
2023-07-03T03:22:44.073Z,17.8
2023-07-03T03:23:48.893Z,17.8
2023-07-03T03:24:53.687Z,17.8
2023-07-03T03:25:58.357Z,17.9
2023-07-03T03:27:03.310Z,17.9
2023-07-03T03:28:08.226Z,17.9
2023-07-03T03:29:13.023Z,17.8
2023-07-03T03:30:17.738Z,17.9
2023-07-03T03:31:22.555Z,17.9
2023-07-03T03:32:27.334Z,17.9
2023-07-03T03:33:32.052Z,17.9
2023-07-03T03:34:38.257Z,17.8
2023-07-03T03:35:42.926Z,17.8
2023-07-03T03:36:49.664Z,17.8
2023-07-03T03:37:54.478Z,17.8
2023-07-03T03:38:59.247Z,17.9
2023-07-03T03:40:04.066Z,17.9
2023-07-03T03:41:09.102Z,17.9
2023-07-03T03:42:13.885Z,17.8
2023-07-03T03:43:18.672Z,17.8
2023-07-03T03:44:23.454Z,17.8
2023-07-03T03:45:28.414Z,17.8
2023-07-03T03:46:33.232Z,17.8
2023-07-03T03:47:38.068Z,17.8
2023-07-03T03:48:42.928Z,17.8
2023-07-03T03:49:47.578Z,17.8
2023-07-03T03:50:52.309Z,17.6
2023-07-03T03:51:57.315Z,17.6
2023-07-03T03:53:02.097Z,17.7
2023-07-03T03:54:06.863Z,17.6
2023-07-03T03:55:11.623Z,17.6
2023-07-03T03:56:16.445Z,17.7
2023-07-03T03:57:22.005Z,17.8
2023-07-03T03:58:26.692Z,17.8
2023-07-03T03:59:31.559Z,17.9
2023-07-03T04:00:36.404Z,17.9
2023-07-03T04:01:41.219Z,17.8
2023-07-03T04:02:46.657Z,17.8
2023-07-03T04:03:51.696Z,17.9
2023-07-03T04:04:56.550Z,17.9
2023-07-03T04:06:01.237Z,17.9
2023-07-03T04:07:06.971Z,18
2023-07-03T04:08:11.668Z,18
2023-07-03T04:09:16.497Z,18
2023-07-03T04:10:21.281Z,18
2023-07-03T04:11:26.894Z,17.9
2023-07-03T04:12:31.614Z,17.7
2023-07-03T04:13:36.463Z,17.7
2023-07-03T04:14:41.989Z,17.7
2023-07-03T04:15:48.688Z,17.7
2023-07-03T04:16:52.599Z,17.8
2023-07-03T04:17:57.249Z,17.6
2023-07-03T04:19:02.057Z,17.7
2023-07-03T04:20:06.836Z,17.7
2023-07-03T04:21:16.529Z,17.6
2023-07-03T04:22:19.646Z,17.7
2023-07-03T04:23:24.416Z,17.7
2023-07-03T04:24:29.201Z,17.7
2023-07-03T04:25:35.006Z,17.6
2023-07-03T04:26:42.005Z,17.6
2023-07-03T04:27:46.820Z,17.6
2023-07-03T04:28:51.717Z,17.7
2023-07-03T04:29:56.910Z,17.8
2023-07-03T04:31:01.918Z,17.8
2023-07-03T04:32:09.407Z,17.8
2023-07-03T04:33:15.186Z,17.8
2023-07-03T04:34:20.073Z,17.8
2023-07-03T04:35:25.425Z,17.8
2023-07-03T04:36:30.084Z,17.9
2023-07-03T04:37:34.972Z,17.9
2023-07-03T04:38:39.781Z,17.7
2023-07-03T04:39:44.529Z,17.6
2023-07-03T04:40:49.400Z,17.7
2023-07-03T04:41:54.341Z,17.7
2023-07-03T04:42:59.965Z,17.7
2023-07-03T04:44:04.926Z,17.8
2023-07-03T04:45:09.664Z,17.8
2023-07-03T04:46:14.618Z,17.9
2023-07-03T04:47:19.314Z,18
2023-07-03T04:48:24.844Z,18
2023-07-03T04:49:29.629Z,17.8
2023-07-03T04:50:34.446Z,17.9
2023-07-03T04:51:39.153Z,17.8
2023-07-03T04:52:43.950Z,17.9
2023-07-03T04:53:48.668Z,18
2023-07-03T04:54:53.568Z,18.1
2023-07-03T04:55:58.501Z,18.1
2023-07-03T04:57:03.214Z,17.9
2023-07-03T04:58:08.243Z,17.8
2023-07-03T04:59:13.028Z,17.8
2023-07-03T05:00:17.836Z,17.9
2023-07-03T05:01:22.765Z,18
2023-07-03T05:02:27.528Z,18
2023-07-03T05:03:32.466Z,18.1
2023-07-03T05:04:37.272Z,18
2023-07-03T05:05:42.135Z,18.1
2023-07-03T05:06:46.796Z,18
2023-07-03T05:07:52.644Z,18
2023-07-03T05:08:57.362Z,18.1
2023-07-03T05:10:02.232Z,18
2023-07-03T05:11:07.176Z,18.1
2023-07-03T05:12:11.933Z,18.2
2023-07-03T05:13:17.813Z,18.2
2023-07-03T05:14:22.682Z,18.3
2023-07-03T05:15:27.448Z,18.2
2023-07-03T05:16:32.312Z,18.2
2023-07-03T05:17:37.143Z,18.3
2023-07-03T05:18:41.978Z,18.3
2023-07-03T05:19:46.681Z,18.4
2023-07-03T05:20:53.628Z,18.4
2023-07-03T05:21:58.363Z,18.5
2023-07-03T05:23:03.250Z,18.5
2023-07-03T05:24:08.021Z,18.6
2023-07-03T05:25:12.876Z,18.6
2023-07-03T05:26:18.671Z,18.6
2023-07-03T05:27:23.797Z,18.7
2023-07-03T05:28:28.605Z,18.7
2023-07-03T05:29:33.341Z,18.7
2023-07-03T05:30:39.292Z,18.8
2023-07-03T05:31:44.247Z,18.7
2023-07-03T05:32:48.998Z,18.9
2023-07-03T05:33:54.858Z,19
2023-07-03T05:34:59.627Z,19
2023-07-03T05:36:04.422Z,19.1
2023-07-03T05:37:09.190Z,19.2
2023-07-03T05:38:13.962Z,19.3
2023-07-03T05:39:18.853Z,19.3
2023-07-03T05:40:24.710Z,19.3
2023-07-03T05:41:29.376Z,19.2
2023-07-03T05:42:34.198Z,19.3
2023-07-03T05:43:39.027Z,19.4
2023-07-03T05:44:43.835Z,19.4
2023-07-03T05:45:49.288Z,19.5
2023-07-03T05:46:53.943Z,19.4
2023-07-03T05:48:00.021Z,19.5
2023-07-03T05:49:04.688Z,19.5
2023-07-03T05:50:10.536Z,19.6
2023-07-03T05:51:18.084Z,19.5
2023-07-03T05:52:23.809Z,19.6
2023-07-03T05:53:28.593Z,19.6
2023-07-03T05:54:33.464Z,19.7
2023-07-03T05:55:38.276Z,19.7
2023-07-03T05:56:43.128Z,19.7
2023-07-03T05:57:47.873Z,19.8
2023-07-03T05:58:52.646Z,19.8
2023-07-03T05:59:57.449Z,19.9
2023-07-03T06:01:02.349Z,19.9
2023-07-03T06:02:07.050Z,20
2023-07-03T06:03:17.851Z,20.1
2023-07-03T06:04:20.855Z,20
2023-07-03T06:05:25.544Z,20.1
2023-07-03T06:06:30.415Z,20
2023-07-03T06:07:35.201Z,20.1
2023-07-03T06:08:39.993Z,20.2
2023-07-03T06:09:44.778Z,20.3
2023-07-03T06:10:51.636Z,20.4
2023-07-03T06:11:57.650Z,20.5
2023-07-03T06:13:02.402Z,20.6
2023-07-03T06:14:07.185Z,20.7
2023-07-03T06:15:17.025Z,20.9
2023-07-03T06:16:21.845Z,20.8
2023-07-03T06:17:26.722Z,20.9
2023-07-03T06:18:31.345Z,21
2023-07-03T06:19:36.333Z,21.2
2023-07-03T06:20:41.264Z,21.3
2023-07-03T06:21:46.088Z,21.4
2023-07-03T06:22:50.842Z,21.6
2023-07-03T06:23:55.817Z,21.6
2023-07-03T06:25:00.628Z,21.6
2023-07-03T06:26:05.368Z,21.4
2023-07-03T06:27:11.245Z,21.3
2023-07-03T06:28:16.881Z,21.4
2023-07-03T06:29:21.642Z,21.4
2023-07-03T06:30:26.385Z,21.3
2023-07-03T06:31:31.130Z,21.4
2023-07-03T06:32:37.028Z,21.6
2023-07-03T06:33:42.021Z,21.7
2023-07-03T06:34:46.723Z,21.6
2023-07-03T06:35:52.829Z,21.8
2023-07-03T06:36:57.378Z,21.9
2023-07-03T06:38:02.405Z,21.9
2023-07-03T06:39:08.249Z,21.8
2023-07-03T06:40:13.082Z,21.8
2023-07-03T06:41:17.839Z,21.8
2023-07-03T06:42:24.716Z,21.9
2023-07-03T06:43:29.499Z,21.8
2023-07-03T06:44:34.199Z,21.9
2023-07-03T06:45:39.049Z,21.8
2023-07-03T06:46:44.843Z,21.9
2023-07-03T06:47:50.013Z,22.2
2023-07-03T06:48:55.771Z,22.4
2023-07-03T06:50:00.706Z,22.5
2023-07-03T06:51:05.470Z,22.4
2023-07-03T06:52:10.344Z,22.4
2023-07-03T06:53:14.990Z,22.5
2023-07-03T06:54:19.746Z,22.7
2023-07-03T06:55:24.438Z,22.8
2023-07-03T06:56:29.225Z,22.9
2023-07-03T06:57:35.166Z,22.9
2023-07-03T06:58:42.041Z,23
2023-07-03T06:59:47.690Z,22.9
2023-07-03T07:00:52.565Z,23
2023-07-03T07:01:57.373Z,22.9
2023-07-03T07:03:03.059Z,22.9
2023-07-03T07:04:08.029Z,23.1
2023-07-03T07:05:12.715Z,23.3
2023-07-03T07:06:20.557Z,23.4
2023-07-03T07:07:27.003Z,23.3
2023-07-03T07:08:31.671Z,23.5
2023-07-03T07:09:36.692Z,23.4
2023-07-03T07:10:42.586Z,23.5
2023-07-03T07:11:47.502Z,23.5
2023-07-03T07:12:52.508Z,23.6
2023-07-03T07:13:57.726Z,23.5
2023-07-03T07:15:02.469Z,23.7
2023-07-03T07:16:07.559Z,23.8
2023-07-03T07:17:17.473Z,23.5
2023-07-03T07:18:22.280Z,23.5
2023-07-03T07:19:27.065Z,23.4
2023-07-03T07:20:34.484Z,23.2
2023-07-03T07:21:42.033Z,23.1
2023-07-03T07:22:48.057Z,23.3
2023-07-03T07:23:53.453Z,23.4
2023-07-03T07:24:58.773Z,23.6
2023-07-03T07:26:03.648Z,23.5
2023-07-03T07:27:08.387Z,23.6
2023-07-03T07:28:13.154Z,23.6
2023-07-03T07:29:17.899Z,23.9
2023-07-03T07:30:22.660Z,24.1
2023-07-03T07:31:28.300Z,23.9
2023-07-03T07:32:33.005Z,23.9
2023-07-03T07:33:37.825Z,23.9
2023-07-03T07:34:43.581Z,24
2023-07-03T07:35:48.588Z,23.9
2023-07-03T07:36:53.944Z,24
2023-07-03T07:37:58.907Z,23.9
2023-07-03T07:39:03.711Z,24
2023-07-03T07:40:08.512Z,24.1
2023-07-03T07:41:13.465Z,24.2
2023-07-03T07:42:19.473Z,24
2023-07-03T07:43:25.082Z,24
2023-07-03T07:44:31.809Z,24
2023-07-03T07:45:37.910Z,23.9
2023-07-03T07:46:42.683Z,23.8
2023-07-03T07:47:47.597Z,23.9
2023-07-03T07:48:53.487Z,24.1
2023-07-03T07:49:59.336Z,24.4
2023-07-03T07:51:04.276Z,24.5
2023-07-03T07:52:11.989Z,24.3
2023-07-03T07:53:16.861Z,24.4
2023-07-03T07:54:21.562Z,24.5
2023-07-03T07:55:26.404Z,24.7
2023-07-03T07:56:34.313Z,24.6
2023-07-03T07:57:37.461Z,24.7
2023-07-03T07:58:42.396Z,24.9
2023-07-03T07:59:47.203Z,24.6
2023-07-03T08:00:53.243Z,24.6
2023-07-03T08:01:59.110Z,24.7
2023-07-03T08:03:09.392Z,24.5
2023-07-03T08:04:12.852Z,24.7
2023-07-03T08:05:17.906Z,24.8
2023-07-03T08:06:22.695Z,24.6
2023-07-03T08:07:27.504Z,24.6
2023-07-03T08:08:32.395Z,24.6
2023-07-03T08:09:37.191Z,24.5
2023-07-03T08:10:42.231Z,24.3
2023-07-03T08:11:47.098Z,24.5
2023-07-03T08:12:51.756Z,24.5
2023-07-03T08:13:56.512Z,24.6
2023-07-03T08:15:01.380Z,24.6
2023-07-03T08:16:06.493Z,24.9
2023-07-03T08:17:11.301Z,24.9
2023-07-03T08:18:16.007Z,24.9
2023-07-03T08:19:20.909Z,25
2023-07-03T08:20:25.742Z,25
2023-07-03T08:21:30.475Z,25.2
2023-07-03T08:22:35.188Z,25.3
2023-07-03T08:23:41.283Z,25.1
2023-07-03T08:24:46.010Z,25.2
2023-07-03T08:25:51.173Z,24.9
2023-07-03T08:26:56.653Z,25
2023-07-03T08:28:01.550Z,24.9
2023-07-03T08:29:06.618Z,24.9
2023-07-03T08:30:11.495Z,24.9
2023-07-03T08:31:16.680Z,24.8
2023-07-03T08:32:22.569Z,24.7
2023-07-03T08:33:27.459Z,24.5
2023-07-03T08:34:33.394Z,24.4
2023-07-03T08:37:47.629Z,24.3
2023-07-03T08:38:52.396Z,24.6
2023-07-03T08:39:57.489Z,24.8
2023-07-03T08:41:02.441Z,25.3
2023-07-03T08:42:07.248Z,25.4
2023-07-03T08:43:14.756Z,25.1
2023-07-03T08:44:19.645Z,25.3
2023-07-03T08:45:24.505Z,25
2023-07-03T08:46:29.456Z,24.8
2023-07-03T08:47:34.159Z,24.8
2023-07-03T08:48:38.882Z,24.5
2023-07-03T08:49:43.729Z,24.6
2023-07-03T08:50:48.513Z,24.6
2023-07-03T08:51:53.435Z,25
2023-07-03T08:52:58.149Z,25.2
2023-07-03T08:54:05.750Z,25.3
2023-07-03T08:55:10.404Z,25.2
2023-07-03T08:56:16.381Z,25
2023-07-03T08:57:21.105Z,25.2
2023-07-03T08:58:26.042Z,25.3
2023-07-03T08:59:30.845Z,25.1
2023-07-03T09:00:35.794Z,25.1
2023-07-03T09:01:40.644Z,25.2
2023-07-03T09:02:56.614Z,25.1
2023-07-03T09:04:09.058Z,25.3
2023-07-03T09:05:23.408Z,25.3
2023-07-03T09:06:34.444Z,25.1
2023-07-03T09:07:44.215Z,25.3
2023-07-03T09:08:49.095Z,25.5
2023-07-03T09:10:01.758Z,25.4
2023-07-03T09:11:14.154Z,25.4
2023-07-03T09:12:19.121Z,25.6
2023-07-03T09:13:23.956Z,25.4
2023-07-03T09:14:28.760Z,25.4
2023-07-03T09:15:34.651Z,25.6
2023-07-03T09:16:42.234Z,25.7
2023-07-03T09:17:47.137Z,25.9
2023-07-03T09:18:52.028Z,26.1
2023-07-03T09:19:59.743Z,25.8
2023-07-03T09:21:04.599Z,25.9
2023-07-03T09:22:09.404Z,26
2023-07-03T09:23:14.231Z,26.1
2023-07-03T09:24:22.375Z,26.2
2023-07-03T09:25:26.847Z,26.1
2023-07-03T09:26:31.601Z,26.2
2023-07-03T09:27:42.677Z,26.4
2023-07-03T09:28:48.530Z,26.5
2023-07-03T09:29:52.771Z,26.3
2023-07-03T09:31:02.087Z,26.2
2023-07-03T09:32:05.410Z,26.3
2023-07-03T09:33:10.309Z,26.4
2023-07-03T09:34:15.015Z,26.3
2023-07-03T09:35:19.937Z,26
2023-07-03T09:36:24.830Z,25.7
2023-07-03T09:37:32.963Z,25.8
2023-07-03T09:38:39.750Z,25.9
2023-07-03T09:39:44.736Z,25.9
2023-07-03T09:40:49.579Z,26.1
2023-07-03T09:41:56.599Z,26.3
2023-07-03T09:43:09.401Z,26.5
2023-07-03T09:44:20.328Z,26.5
2023-07-03T09:45:24.044Z,26.4
2023-07-03T09:46:28.870Z,26.4
2023-07-03T09:47:33.788Z,26.2
2023-07-03T09:48:38.563Z,26.4
2023-07-03T09:49:43.357Z,26.3
2023-07-03T09:51:05.366Z,26.3
2023-07-03T09:51:52.879Z,26.5
2023-07-03T09:53:08.069Z,26.5
2023-07-03T09:54:03.540Z,26.4
2023-07-03T09:55:11.212Z,26.5
2023-07-03T09:56:16.183Z,26.7
2023-07-03T09:57:21.924Z,26.7
2023-07-03T09:58:26.637Z,26.8
2023-07-03T09:59:31.534Z,26.9
2023-07-03T10:00:36.482Z,26.8
2023-07-03T10:03:52.120Z,27.3
2023-07-03T10:07:26.402Z,26.8
2023-07-03T10:08:31.559Z,26.7
2023-07-03T10:11:46.091Z,26.7
2023-07-03T10:12:50.905Z,26.8
2023-07-03T10:14:03.315Z,26.7
2023-07-03T10:15:08.303Z,26.3
2023-07-03T10:16:18.261Z,26.2
2023-07-03T10:17:24.047Z,26
2023-07-03T10:18:38.925Z,26
2023-07-03T10:19:43.703Z,25.9
2023-07-03T10:20:48.469Z,25.9
2023-07-03T10:21:53.561Z,25.9
2023-07-03T10:22:58.446Z,25.8
2023-07-03T10:24:03.273Z,25.8
2023-07-03T10:25:08.193Z,25.6
2023-07-03T10:26:13.117Z,25.6
2023-07-03T10:27:24.114Z,25.4
2023-07-03T10:28:29.790Z,25.4
2023-07-03T10:29:37.348Z,25.6
2023-07-03T10:30:45.190Z,25.5
2023-07-03T10:31:50.055Z,25.5
2023-07-03T10:33:00.142Z,25.6
2023-07-03T10:34:04.892Z,25.7
2023-07-03T10:35:09.742Z,25.7
2023-07-03T10:36:14.478Z,25.9
2023-07-03T10:37:19.306Z,25.9
2023-07-03T10:38:24.180Z,26.1
2023-07-03T10:39:32.366Z,26.2
2023-07-03T10:40:36.531Z,26.2
2023-07-03T10:41:46.407Z,26.4
2023-07-03T10:42:51.867Z,26.5
2023-07-03T10:43:59.548Z,26.5
2023-07-03T10:45:09.580Z,26.7
2023-07-03T10:46:14.584Z,26.6
2023-07-03T10:47:19.375Z,26.9
2023-07-03T10:48:34.332Z,26.9
2023-07-03T10:49:39.101Z,27.2
2023-07-03T10:50:43.831Z,27.2
2023-07-03T10:51:53.714Z,27.1
2023-07-03T10:52:58.695Z,27
2023-07-03T10:54:03.683Z,27.1
2023-07-03T10:55:14.363Z,27.2
2023-07-03T10:56:27.248Z,27.4
2023-07-03T10:57:39.987Z,27.4
2023-07-03T10:58:50.000Z,27.5
2023-07-03T11:00:00.989Z,27.6
2023-07-03T11:01:05.969Z,27.6
2023-07-03T11:02:10.714Z,27.5
2023-07-03T11:03:23.572Z,27.1
2023-07-03T11:04:36.630Z,27.1
2023-07-03T11:05:46.380Z,26.9
2023-07-03T11:06:52.256Z,26.8
2023-07-03T11:08:02.083Z,26.8
2023-07-03T11:09:11.188Z,26.6
2023-07-03T11:10:16.016Z,26.6
2023-07-03T11:11:28.804Z,26.3
2023-07-03T11:12:39.119Z,26.5
2023-07-03T11:13:54.285Z,26.9
2023-07-03T11:15:03.905Z,27
2023-07-03T11:16:13.499Z,27
2023-07-03T11:17:18.270Z,27.2
2023-07-03T11:23:13.950Z,27.2
2023-07-03T11:24:23.805Z,27.1
2023-07-03T11:25:34.111Z,27.1
2023-07-03T11:29:01.633Z,27.3
2023-07-03T11:30:07.525Z,27.5
2023-07-03T11:31:12.409Z,27.5
2023-07-03T11:32:17.138Z,27.2
2023-07-03T11:33:23.558Z,27.3
2023-07-03T11:36:43.344Z,27
2023-07-03T11:39:52.034Z,27.3
2023-07-03T11:40:56.735Z,27.2
2023-07-03T11:44:20.114Z,27.2
2023-07-03T11:45:32.902Z,27.2
2023-07-03T11:46:37.824Z,27.2
2023-07-03T11:47:42.680Z,27.2
2023-07-03T11:48:48.767Z,27.1
2023-07-03T11:49:53.572Z,27.2
2023-07-03T11:51:04.683Z,27.1
2023-07-03T11:52:09.506Z,27.3
2023-07-03T11:53:17.315Z,27.7
2023-07-03T11:54:32.319Z,27.4
2023-07-03T11:55:37.134Z,27.4
2023-07-03T11:56:42.032Z,27.3
2023-07-03T11:57:50.089Z,27.3
2023-07-03T11:58:51.649Z,27.4
2023-07-03T11:59:56.568Z,27.5
2023-07-03T12:01:11.468Z,27.5
2023-07-03T12:02:26.521Z,27.5
2023-07-03T12:03:31.671Z,27.4
2023-07-03T12:04:49.424Z,27.5
2023-07-03T12:05:55.122Z,27.3
2023-07-03T12:07:00.044Z,27.3
2023-07-03T12:08:04.857Z,27.1
2023-07-03T12:09:16.137Z,27
2023-07-03T12:10:25.901Z,27
2023-07-03T12:11:33.595Z,27.2
2023-07-03T12:12:38.369Z,27.3
2023-07-03T12:13:43.217Z,27.4
2023-07-03T12:14:47.890Z,27.3
2023-07-03T12:15:57.704Z,27.2
2023-07-03T12:17:02.534Z,27.3
2023-07-03T12:18:07.390Z,27.4
2023-07-03T12:19:12.192Z,27.5
2023-07-03T12:20:17.025Z,27.2
2023-07-03T12:21:21.966Z,27.3
2023-07-03T12:22:26.684Z,27.4
2023-07-03T12:23:31.437Z,27.3
2023-07-03T12:24:43.792Z,27.1
2023-07-03T12:25:48.717Z,26.9
2023-07-03T12:26:53.622Z,27.1
2023-07-03T12:27:58.616Z,27
2023-07-03T12:29:11.201Z,27.1
2023-07-03T12:30:15.999Z,27.2
2023-07-03T12:31:23.659Z,27.2
2023-07-03T12:32:28.360Z,27.2
2023-07-03T12:33:34.192Z,27.2
2023-07-03T12:34:39.221Z,27.3
2023-07-03T12:35:45.625Z,27.3
2023-07-03T12:36:54.161Z,26.9
2023-07-03T12:37:55.199Z,26.8
2023-07-03T12:39:02.899Z,27
2023-07-03T12:40:15.704Z,27.1
2023-07-03T12:41:20.500Z,27.1
2023-07-03T12:42:30.420Z,26.6
2023-07-03T12:43:35.194Z,26.5
2023-07-03T12:44:39.976Z,26.8
2023-07-03T12:45:44.687Z,26.7
2023-07-03T12:46:54.559Z,26.8
2023-07-03T12:48:01.430Z,27
2023-07-03T12:49:06.146Z,26.9
2023-07-03T12:50:18.837Z,26.7
2023-07-03T12:51:23.591Z,26.7
2023-07-03T12:52:28.404Z,26.6
2023-07-03T12:53:33.273Z,26.4
2023-07-03T12:54:37.997Z,26.4
2023-07-03T12:55:42.703Z,26.5
2023-07-03T12:56:47.453Z,26.7
2023-07-03T12:57:55.064Z,26.8
2023-07-03T12:58:59.869Z,26.7
2023-07-03T13:00:04.701Z,26.8
2023-07-03T13:01:09.856Z,26.8
2023-07-03T13:02:14.611Z,26.8
2023-07-03T13:03:28.552Z,26.9
2023-07-03T13:04:33.602Z,27
2023-07-03T13:05:38.368Z,27.2
2023-07-03T13:06:43.173Z,27.1
2023-07-03T13:07:47.957Z,27.1
2023-07-03T13:08:52.706Z,26.7
2023-07-03T13:09:57.561Z,26.7
2023-07-03T13:11:02.454Z,26.7
2023-07-03T13:12:07.239Z,26.5
2023-07-03T13:13:20.122Z,26.8
2023-07-03T13:14:25.035Z,26.7
2023-07-03T13:15:30.079Z,26.8
2023-07-03T13:16:38.809Z,26.7
2023-07-03T13:17:43.730Z,26.7
2023-07-03T13:18:48.478Z,26.7
2023-07-03T13:20:02.251Z,26.7
2023-07-03T13:21:17.397Z,26.5
2023-07-03T13:22:22.078Z,26.4
2023-07-03T13:23:26.872Z,26.4
2023-07-03T13:24:36.604Z,26.5
2023-07-03T13:25:46.379Z,26.5
2023-07-03T13:26:53.884Z,26.6
2023-07-03T13:27:58.629Z,26.7
2023-07-03T13:29:03.432Z,26.5
2023-07-03T13:30:09.606Z,26.6
2023-07-03T13:31:21.903Z,26.7
2023-07-03T13:32:27.105Z,26.7
2023-07-03T13:33:31.789Z,26.8
2023-07-03T13:34:36.531Z,26.7
2023-07-03T13:35:41.310Z,26.7
2023-07-03T13:36:46.105Z,26.8
2023-07-03T13:37:56.143Z,27
2023-07-03T13:39:10.991Z,27.1
2023-07-03T13:40:18.744Z,27.2
2023-07-03T13:41:23.479Z,27.4
2023-07-03T13:42:28.223Z,27.2
2023-07-03T13:43:33.132Z,27.4
2023-07-03T13:44:39.004Z,27.2
2023-07-03T13:45:45.669Z,27.2
2023-07-03T13:46:50.446Z,26.8
2023-07-03T13:47:55.143Z,26.9
2023-07-03T13:48:59.951Z,26.8
2023-07-03T13:50:06.192Z,26.6
2023-07-03T13:51:12.754Z,26.6
2023-07-03T13:52:17.601Z,26.5
2023-07-03T13:53:22.376Z,26.5
2023-07-03T13:54:27.261Z,26.5
2023-07-03T13:55:32.152Z,26.8
2023-07-03T13:56:36.977Z,26.9
2023-07-03T13:57:41.826Z,27
2023-07-03T13:58:46.905Z,27
2023-07-03T13:59:51.803Z,26.8
2023-07-03T14:00:56.694Z,26.7
2023-07-03T14:02:01.623Z,26.7
2023-07-03T14:03:07.169Z,26.8
2023-07-03T14:04:12.077Z,26.8
2023-07-03T14:05:17.760Z,26.9
2023-07-03T14:06:22.596Z,27
2023-07-03T14:07:27.494Z,27
2023-07-03T14:08:32.393Z,27.2
2023-07-03T14:09:38.376Z,27.3
2023-07-03T14:10:43.119Z,27.4
2023-07-03T14:11:49.237Z,27.4
2023-07-03T14:12:54.128Z,27.4
2023-07-03T14:13:59.117Z,27.4
2023-07-03T14:15:04.994Z,27.2
2023-07-03T14:16:17.928Z,27.3
2023-07-03T14:17:22.865Z,27
2023-07-03T14:18:28.440Z,27.1
2023-07-03T14:19:33.573Z,27.1
2023-07-03T14:20:38.352Z,27.2
2023-07-03T14:21:43.104Z,27.2
2023-07-03T14:22:47.813Z,27
2023-07-03T14:23:52.653Z,27
2023-07-03T14:24:57.596Z,26.9
2023-07-03T14:26:02.806Z,27
2023-07-03T14:27:07.536Z,26.8
2023-07-03T14:28:12.351Z,26.9
2023-07-03T14:29:17.275Z,26.8
2023-07-03T14:30:23.059Z,26.9
2023-07-03T14:31:27.836Z,26.8
2023-07-03T14:32:44.288Z,26.8
2023-07-03T14:33:37.510Z,27
2023-07-03T14:34:42.341Z,26.9
2023-07-03T14:35:47.240Z,26.8
2023-07-03T14:36:52.104Z,26.9
2023-07-03T14:37:56.950Z,27
2023-07-03T14:39:01.692Z,27.2
2023-07-03T14:40:07.644Z,27.2
2023-07-03T14:41:12.665Z,27.3
2023-07-03T14:42:17.386Z,27.2
2023-07-03T14:43:23.191Z,27
2023-07-03T14:44:28.006Z,27
2023-07-03T14:45:34.045Z,26.9
2023-07-03T14:46:39.172Z,27
2023-07-03T14:47:43.662Z,27.1
2023-07-03T14:48:48.397Z,27
2023-07-03T14:49:53.259Z,27.1
2023-07-03T14:50:59.140Z,27.2
2023-07-03T14:52:04.890Z,27.2
2023-07-03T14:53:09.817Z,27.3
2023-07-03T14:54:14.612Z,27.2
2023-07-03T14:55:19.342Z,27.2
2023-07-03T14:56:24.377Z,27.1
2023-07-03T14:57:29.073Z,27.1
2023-07-03T14:58:33.764Z,27.1
2023-07-03T14:59:38.516Z,27.2
2023-07-03T15:00:43.301Z,27.1
2023-07-03T15:01:48.104Z,27.2
2023-07-03T15:02:52.905Z,27.2
2023-07-03T15:03:57.820Z,27.2